Aérodrome :
LOGIN :

S'inscrire | Disclaimer

   EN    FR    IT 

 










Légende :    VFR   VFR Marginal   IFR   IFR Intensif   IFR Très Intensif
Visi : 
Plafond : 
>= 8 km
>= 3000ft
5 à 8 km
1000 à 3000 ft
1500m à 5 km
500 à 1000 ft
800 à 1500m
200 à 500 ft
< 800m
< 200 ft
Symboles :   Orages  Brouillard  Fortes neiges  Fortes précipitations  Vent > 20 kt
SIGMETs :   Divers  Orages  Givrage  Turbulence  Onde Orograph.  Cendres Volcan.






- Altitude de l'aérodrome : 42 ft
- Code IATA : LMO


EGQS - Lossiemouth

DERNIER METAR :
  • 270550Z 16009KT 9999 FEW042 SCT200 02/M02 Q0987 RMK BLU

METARs EXPIRÉS :
  • 270450Z 16012KT 9999 FEW044 02/M01 Q0988 RMK BLU
  • 270350Z 13011KT CAVOK 02/M02 Q0989 RMK BLU

TAF TAF EGQS
Valide du 27 à 06h jusqu'au 28 à 00h UTC


270403Z 2706/2724 15008KT 9999 FEW040
PROB30
TEMPO 2706/2718 7000 -SHRASN SCT018CB
BECMG 2709/2712 21015KT
TEMPO 2709/2715 22018G28KT
BECMG 2722/2724 15008KT



MET'MAP, la Météo Aéronautique d'un coup d'oeil ! - Copyright ORBIFLY Décembre 2007 - Disclaimer

ORBIFLY MET'MAP TEAM :

Programmation & Développement : Alexandra Zaïnal
Sur une idée originale de : Baudouin d'Aumeries
Assistance à la programmation : Marc-Olivier Méhu
Soutien technique & logistique : Manuel Goepfert

Contact : metmap@orbifly.com




SOURCES & CREDITS :

   NOAA